createdAt,value
2019-03-13T00:01:23.719Z,5.40
2019-03-13T00:03:52.150Z,5.43
2019-03-13T00:06:21.376Z,4.80
2019-03-13T00:08:50.551Z,5.40
2019-03-13T00:11:19.806Z,5.33
2019-03-13T00:13:48.998Z,5.30
2019-03-13T00:16:18.277Z,5.77
2019-03-13T00:18:47.560Z,5.80
2019-03-13T00:21:16.782Z,6.20
2019-03-13T00:23:46.001Z,6.30
2019-03-13T00:26:15.214Z,5.30
2019-03-13T00:28:44.745Z,5.33
2019-03-13T00:31:13.956Z,5.70
2019-03-13T00:33:43.799Z,5.73
2019-03-13T00:36:13.871Z,5.23
2019-03-13T00:38:43.102Z,5.73
2019-03-13T00:41:12.389Z,5.87
2019-03-13T00:43:41.574Z,4.77
2019-03-13T00:46:10.813Z,5.03
2019-03-13T00:48:40.327Z,4.60
2019-03-13T00:51:10.316Z,5.20
2019-03-13T00:53:39.535Z,4.93
2019-03-13T00:56:08.772Z,4.80
2019-03-13T00:58:38.035Z,4.03
2019-03-13T01:01:38.060Z,4.40
2019-03-13T01:04:20.406Z,4.00
2019-03-13T01:06:53.649Z,4.27
2019-03-13T01:09:23.183Z,3.80
2019-03-13T01:11:52.425Z,4.90
2019-03-13T01:14:21.633Z,4.57
2019-03-13T01:16:50.822Z,3.93
2019-03-13T01:19:20.037Z,3.97
2019-03-13T01:21:49.267Z,4.20
2019-03-13T01:24:18.470Z,3.77
2019-03-13T01:26:48.026Z,3.40
2019-03-13T01:29:17.230Z,3.57
2019-03-13T01:32:11.448Z,3.63
2019-03-13T01:34:44.269Z,3.10
2019-03-13T01:37:13.492Z,2.97
2019-03-13T01:39:42.725Z,3.43
2019-03-13T01:42:11.935Z,3.03
2019-03-13T01:44:41.296Z,3.43
2019-03-13T01:47:10.533Z,3.33
2019-03-13T01:49:39.789Z,3.43
2019-03-13T01:52:09.324Z,3.27
2019-03-13T01:54:38.555Z,2.73
2019-03-13T01:57:07.802Z,3.20
2019-03-13T01:59:37.020Z,2.87
2019-03-13T02:02:06.249Z,3.17
2019-03-13T02:04:35.461Z,2.90
2019-03-13T02:07:04.670Z,2.87
2019-03-13T02:09:33.915Z,3.10
2019-03-13T02:12:03.168Z,2.90
2019-03-13T02:14:32.383Z,3.37
2019-03-13T02:17:01.638Z,3.17
2019-03-13T02:19:30.839Z,2.93
2019-03-13T02:22:00.428Z,2.87
2019-03-13T02:24:29.827Z,2.80
2019-03-13T02:26:59.106Z,2.47
2019-03-13T02:29:28.314Z,2.70
2019-03-13T02:31:57.555Z,3.13
2019-03-13T02:34:26.726Z,2.57
2019-03-13T02:36:55.966Z,2.97
2019-03-13T02:39:25.200Z,3.03
2019-03-13T02:41:54.394Z,2.47
2019-03-13T02:44:23.636Z,2.83
2019-03-13T02:46:52.874Z,2.73
2019-03-13T02:49:22.066Z,3.07
2019-03-13T02:51:51.280Z,2.83
2019-03-13T02:54:20.467Z,2.63
2019-03-13T02:56:49.711Z,2.77
2019-03-13T02:59:18.954Z,2.57
2019-03-13T03:01:54.505Z,2.50
2019-03-13T03:04:23.644Z,3.10
2019-03-13T03:06:52.885Z,2.70
2019-03-13T03:09:22.060Z,3.00
2019-03-13T03:11:51.294Z,2.07
2019-03-13T03:14:20.500Z,2.80
2019-03-13T03:16:49.721Z,2.57
2019-03-13T03:19:19.302Z,2.40
2019-03-13T03:21:49.129Z,1.90
2019-03-13T03:24:18.425Z,2.37
2019-03-13T03:26:47.670Z,1.77
2019-03-13T03:29:16.881Z,2.13
2019-03-13T03:31:46.051Z,2.30
2019-03-13T03:34:15.276Z,2.10
2019-03-13T03:36:44.867Z,2.47
2019-03-13T03:39:14.551Z,2.00
2019-03-13T03:41:43.751Z,2.10
2019-03-13T03:44:13.041Z,1.73
2019-03-13T03:46:42.266Z,1.87
2019-03-13T03:49:11.453Z,2.07
2019-03-13T03:51:40.706Z,1.67
2019-03-13T03:54:09.923Z,2.23
2019-03-13T03:56:39.258Z,1.67
2019-03-13T03:59:08.507Z,2.10
2019-03-13T04:01:37.786Z,2.00
2019-03-13T04:04:07.057Z,1.77
2019-03-13T04:06:36.309Z,1.63
2019-03-13T04:09:08.178Z,1.40
2019-03-13T04:11:37.395Z,1.70
2019-03-13T04:14:06.611Z,1.87
2019-03-13T04:16:36.126Z,1.60
2019-03-13T04:19:05.437Z,1.80
2019-03-13T04:21:34.637Z,1.97
2019-03-13T04:24:03.898Z,1.87
2019-03-13T04:26:33.124Z,1.67
2019-03-13T04:29:02.333Z,1.67
2019-03-13T04:31:31.559Z,1.80
2019-03-13T04:34:00.775Z,2.03
2019-03-13T04:36:30.130Z,1.77
2019-03-13T04:38:59.310Z,2.47
2019-03-13T04:41:28.522Z,2.13
2019-03-13T04:43:57.743Z,1.83
2019-03-13T04:46:26.944Z,1.57
2019-03-13T04:48:56.453Z,1.60
2019-03-13T04:51:25.653Z,1.63
2019-03-13T04:53:55.264Z,1.83
2019-03-13T04:56:24.799Z,1.47
2019-03-13T04:58:54.002Z,1.27
2019-03-13T05:01:26.074Z,1.70
2019-03-13T05:03:54.220Z,1.33
2019-03-13T05:06:23.962Z,1.77
2019-03-13T05:09:04.929Z,1.67
2019-03-13T05:11:34.134Z,1.60
2019-03-13T05:14:03.381Z,1.80
2019-03-13T05:16:32.690Z,1.17
2019-03-13T05:19:01.908Z,1.20
2019-03-13T05:21:31.526Z,1.77
2019-03-13T05:24:00.800Z,1.37
2019-03-13T05:26:30.003Z,1.50
2019-03-13T05:28:59.231Z,2.80
2019-03-13T05:31:28.430Z,1.47
2019-03-13T05:33:57.633Z,1.60
2019-03-13T05:36:26.906Z,1.60
2019-03-13T05:38:56.170Z,1.50
2019-03-13T05:41:25.358Z,2.47
2019-03-13T05:43:54.551Z,2.20
2019-03-13T05:46:23.799Z,1.60
2019-03-13T05:48:53.379Z,1.93
2019-03-13T05:51:22.577Z,1.60
2019-03-13T05:53:51.842Z,1.87
2019-03-13T05:56:21.110Z,1.87
2019-03-13T05:58:50.346Z,1.90
2019-03-13T06:01:19.577Z,2.07
2019-03-13T06:03:48.812Z,2.87
2019-03-13T06:06:18.015Z,2.50
2019-03-13T06:08:47.738Z,2.43
2019-03-13T06:11:16.969Z,1.93
2019-03-13T06:13:47.421Z,2.60
2019-03-13T06:16:17.457Z,2.47
2019-03-13T06:18:46.930Z,2.40
2019-03-13T06:21:16.370Z,3.20
2019-03-13T06:23:47.994Z,3.53
2019-03-13T06:26:16.462Z,3.30
2019-03-13T06:28:45.677Z,4.10
2019-03-13T06:31:14.879Z,2.87
2019-03-13T06:33:44.173Z,3.83
2019-03-13T06:36:13.372Z,3.00
2019-03-13T06:38:42.590Z,2.77
2019-03-13T06:41:11.785Z,2.97
2019-03-13T06:43:41.070Z,3.27
2019-03-13T06:46:10.231Z,3.40
2019-03-13T06:48:39.473Z,5.50
2019-03-13T06:51:08.686Z,4.07
2019-03-13T06:53:37.923Z,3.43
2019-03-13T06:56:07.177Z,3.40
2019-03-13T06:58:45.482Z,4.40
2019-03-13T07:01:25.186Z,4.30
2019-03-13T07:04:22.427Z,4.00
2019-03-13T07:06:58.918Z,3.43
2019-03-13T07:09:46.538Z,3.73
2019-03-13T07:12:40.763Z,3.83
2019-03-13T07:15:19.438Z,4.23
2019-03-13T07:18:13.825Z,3.60
2019-03-13T07:21:11.311Z,3.27
2019-03-13T07:24:14.548Z,3.30
2019-03-13T07:27:02.691Z,3.37
2019-03-13T07:29:38.750Z,3.27
2019-03-13T07:32:24.819Z,3.30
2019-03-13T07:35:15.764Z,4.03
2019-03-13T07:38:02.762Z,2.73
2019-03-13T07:40:41.927Z,3.53
2019-03-13T07:43:19.323Z,3.50
2019-03-13T07:46:04.173Z,3.17
2019-03-13T07:48:48.428Z,3.93
2019-03-13T07:51:39.371Z,3.30
2019-03-13T07:54:26.093Z,3.30
2019-03-13T07:57:14.313Z,3.33
2019-03-13T07:59:57.752Z,2.97
2019-03-13T08:02:45.927Z,3.00
2019-03-13T08:05:23.871Z,3.23
2019-03-13T08:08:10.613Z,3.10
2019-03-13T08:11:07.721Z,3.50
2019-03-13T08:13:54.721Z,3.30
2019-03-13T08:16:48.537Z,2.83
2019-03-13T08:19:28.439Z,2.90
2019-03-13T08:22:16.627Z,2.70
2019-03-13T08:24:55.963Z,2.57
2019-03-13T08:27:38.067Z,2.63
2019-03-13T08:30:23.216Z,2.27
2019-03-13T08:33:14.483Z,2.37
2019-03-13T08:36:11.612Z,2.33
2019-03-13T08:38:58.386Z,2.50
2019-03-13T08:41:58.532Z,2.40
2019-03-13T08:44:58.758Z,2.30
2019-03-13T08:47:45.911Z,2.37
2019-03-13T08:50:25.208Z,2.07
2019-03-13T08:53:07.974Z,2.50
2019-03-13T08:55:53.009Z,2.20
2019-03-13T08:58:33.939Z,2.60
2019-03-13T09:01:20.710Z,2.27
2019-03-13T09:04:12.732Z,2.40
2019-03-13T09:06:53.340Z,2.23
2019-03-13T09:09:32.805Z,2.10
2019-03-13T09:12:23.795Z,2.10
2019-03-13T09:15:21.039Z,2.13
2019-03-13T09:18:07.814Z,2.00
2019-03-13T09:20:59.012Z,1.90
2019-03-13T09:23:47.793Z,2.30
2019-03-13T09:26:34.776Z,1.80
2019-03-13T09:29:13.637Z,2.20
2019-03-13T09:32:16.777Z,2.00
2019-03-13T09:35:13.759Z,1.97
2019-03-13T09:38:08.080Z,1.83
2019-03-13T09:40:43.795Z,1.93
2019-03-13T09:43:19.410Z,2.00
2019-03-13T09:46:06.448Z,1.90
2019-03-13T09:48:53.645Z,1.87
2019-03-13T09:51:41.789Z,2.00
2019-03-13T09:54:38.799Z,1.63
2019-03-13T09:57:26.305Z,1.77
2019-03-13T10:00:13.123Z,1.77
2019-03-13T10:02:52.789Z,1.60
2019-03-13T10:05:31.182Z,1.70
2019-03-13T10:08:18.032Z,1.60
2019-03-13T10:10:55.866Z,1.50
2019-03-13T10:13:34.103Z,1.47
2019-03-13T10:16:22.542Z,1.57
2019-03-13T10:19:28.384Z,1.53
2019-03-13T10:22:20.246Z,1.60
2019-03-13T10:25:07.194Z,1.60
2019-03-13T10:27:51.608Z,1.60
2019-03-13T10:30:26.963Z,1.33
2019-03-13T10:33:09.794Z,1.57
2019-03-13T10:35:52.401Z,1.43
2019-03-13T10:38:49.890Z,1.40
2019-03-13T10:41:27.211Z,1.30
2019-03-13T10:44:18.468Z,1.40
2019-03-13T10:46:56.914Z,1.07
2019-03-13T10:49:33.412Z,1.30
2019-03-13T10:52:28.148Z,1.20
2019-03-13T10:55:19.104Z,1.20
2019-03-13T10:58:04.617Z,1.20
2019-03-13T11:00:58.617Z,1.53
2019-03-13T11:03:53.892Z,1.50
2019-03-13T11:06:55.198Z,1.30
2019-03-13T11:09:52.547Z,1.40
2019-03-13T11:12:40.741Z,1.30
2019-03-13T11:15:24.387Z,1.30
2019-03-13T11:18:27.851Z,1.40
2019-03-13T11:21:09.262Z,1.10
2019-03-13T11:24:01.096Z,1.40
2019-03-13T11:26:48.367Z,1.00
2019-03-13T11:29:29.741Z,1.50
2019-03-13T11:32:13.393Z,1.10
2019-03-13T11:35:01.561Z,1.20
2019-03-13T11:37:39.738Z,1.00
2019-03-13T11:40:35.173Z,1.03
2019-03-13T11:43:18.440Z,1.10
2019-03-13T11:46:06.608Z,1.13
2019-03-13T11:48:47.474Z,1.23
2019-03-13T11:51:32.824Z,1.00
2019-03-13T11:54:20.996Z,1.10
2019-03-13T11:57:12.179Z,0.97
2019-03-13T12:00:06.147Z,1.20
2019-03-13T12:02:57.350Z,1.10
2019-03-13T12:05:40.717Z,1.20
2019-03-13T12:08:19.467Z,1.13
2019-03-13T12:11:23.041Z,1.00
2019-03-13T12:14:05.849Z,1.30
2019-03-13T12:16:56.796Z,1.20
2019-03-13T12:19:51.011Z,1.20
2019-03-13T12:22:48.294Z,1.00
2019-03-13T12:25:24.984Z,1.13
2019-03-13T12:28:28.170Z,1.10
2019-03-13T12:31:22.255Z,0.87
2019-03-13T12:34:02.402Z,0.97
2019-03-13T12:36:48.377Z,1.00
2019-03-13T12:39:39.521Z,1.20
2019-03-13T12:42:18.436Z,0.97
2019-03-13T12:45:09.628Z,1.10
2019-03-13T12:47:56.511Z,1.00
2019-03-13T12:50:41.077Z,1.33
2019-03-13T12:53:28.109Z,0.97
2019-03-13T12:56:22.287Z,0.93
2019-03-13T12:59:09.347Z,1.10
2019-03-13T13:01:44.954Z,1.07
2019-03-13T13:04:35.932Z,0.93
2019-03-13T13:07:16.891Z,1.10
2019-03-13T13:10:17.926Z,0.80
2019-03-13T13:13:06.090Z,0.80
2019-03-13T13:16:00.537Z,0.90
2019-03-13T13:18:47.720Z,0.80
2019-03-13T13:21:17.477Z,0.97
2019-03-13T13:23:46.633Z,1.00
2019-03-13T13:26:15.809Z,0.90
2019-03-13T13:28:45.033Z,0.90
2019-03-13T13:31:14.582Z,0.80
2019-03-13T13:33:43.825Z,1.00
2019-03-13T13:36:13.020Z,0.80
2019-03-13T13:38:42.231Z,1.00
2019-03-13T13:41:11.438Z,0.97
2019-03-13T13:43:40.706Z,1.00
2019-03-13T13:46:30.489Z,0.90
2019-03-13T13:48:59.715Z,0.90
2019-03-13T13:51:28.959Z,0.80
2019-03-13T13:53:58.235Z,0.87
2019-03-13T13:56:27.435Z,1.10
2019-03-13T13:58:56.628Z,0.90
2019-03-13T14:01:25.850Z,0.70
2019-03-13T14:03:55.321Z,1.27
2019-03-13T14:06:24.679Z,1.00
2019-03-13T14:08:53.910Z,1.10
2019-03-13T14:11:23.131Z,0.90
2019-03-13T14:13:52.738Z,0.80
2019-03-13T14:16:21.962Z,0.80
2019-03-13T14:18:51.219Z,1.07
2019-03-13T14:21:20.461Z,0.80
2019-03-13T14:23:49.672Z,1.20
2019-03-13T14:26:18.845Z,0.97
2019-03-13T14:28:48.111Z,1.03
2019-03-13T14:31:17.343Z,0.90
2019-03-13T14:33:46.642Z,0.90
2019-03-13T14:36:16.126Z,1.10
2019-03-13T14:38:45.715Z,1.03
2019-03-13T14:41:14.971Z,1.10
2019-03-13T14:43:44.235Z,1.17
2019-03-13T14:46:13.803Z,1.20
2019-03-13T14:48:43.053Z,0.90
2019-03-13T14:51:12.234Z,1.30
2019-03-13T14:53:41.782Z,1.00
2019-03-13T14:56:11.040Z,0.90
2019-03-13T14:58:40.264Z,1.10
2019-03-13T15:01:09.648Z,1.10
2019-03-13T15:03:41.250Z,1.10
2019-03-13T15:06:09.769Z,1.30
2019-03-13T15:08:38.996Z,0.90
2019-03-13T15:11:08.243Z,1.20
2019-03-13T15:13:37.516Z,1.07
2019-03-13T15:16:06.777Z,1.10
2019-03-13T15:18:36.138Z,0.97
2019-03-13T15:21:05.423Z,1.07
2019-03-13T15:23:34.672Z,1.00
2019-03-13T15:26:04.223Z,1.00
2019-03-13T15:28:33.573Z,1.40
2019-03-13T15:31:02.822Z,1.40
2019-03-13T15:33:32.034Z,0.90
2019-03-13T15:36:01.827Z,1.10
2019-03-13T15:38:31.077Z,1.00
2019-03-13T15:41:00.314Z,1.10
2019-03-13T15:43:29.542Z,0.80
2019-03-13T15:45:58.814Z,1.10
2019-03-13T15:48:28.008Z,0.93
2019-03-13T15:50:57.243Z,1.00
2019-03-13T15:53:26.468Z,1.10
2019-03-13T15:55:55.756Z,1.30
2019-03-13T15:58:25.038Z,1.10
2019-03-13T16:00:54.261Z,0.90
2019-03-13T16:03:23.469Z,1.07
2019-03-13T16:05:52.697Z,1.20
2019-03-13T16:08:21.926Z,1.10
2019-03-13T16:10:51.148Z,0.93
2019-03-13T16:13:20.706Z,0.93
2019-03-13T16:15:49.935Z,0.80
2019-03-13T16:18:19.226Z,0.93
2019-03-13T16:20:48.460Z,1.20
2019-03-13T16:23:17.666Z,1.00
2019-03-13T16:25:46.946Z,0.90
2019-03-13T16:28:16.167Z,0.90
2019-03-13T16:30:45.777Z,0.80
2019-03-13T16:33:14.951Z,1.03
2019-03-13T16:35:44.178Z,0.93
2019-03-13T16:38:13.746Z,1.10
2019-03-13T16:40:42.965Z,1.10
2019-03-13T16:43:12.170Z,1.03
2019-03-13T16:45:41.421Z,0.80
2019-03-13T16:48:10.639Z,1.00
2019-03-13T16:50:42.332Z,0.80
2019-03-13T16:53:11.871Z,1.00
2019-03-13T16:55:41.080Z,1.13
2019-03-13T16:58:10.334Z,1.30
2019-03-13T17:00:39.570Z,1.00
2019-03-13T17:03:08.818Z,1.10
2019-03-13T17:05:38.053Z,0.90
2019-03-13T17:08:07.297Z,0.90
2019-03-13T17:10:36.546Z,0.87
2019-03-13T17:13:06.022Z,1.00
2019-03-13T17:15:35.163Z,1.00
2019-03-13T17:18:04.430Z,0.90
2019-03-13T17:20:33.706Z,0.90
2019-03-13T17:23:02.938Z,1.07
2019-03-13T17:25:32.166Z,1.00
2019-03-13T17:28:01.392Z,0.97
2019-03-13T17:30:30.624Z,0.90
2019-03-13T17:33:00.046Z,1.27
2019-03-13T17:35:29.749Z,1.13
2019-03-13T17:37:59.679Z,1.20
2019-03-13T17:40:28.899Z,1.10
2019-03-13T17:42:58.146Z,1.20
2019-03-13T17:45:27.739Z,1.07
2019-03-13T17:47:56.925Z,1.00
2019-03-13T17:50:26.134Z,1.00
2019-03-13T17:52:55.465Z,0.97
2019-03-13T17:55:24.769Z,0.87
2019-03-13T17:57:54.015Z,1.10
2019-03-13T18:00:26.995Z,0.90
2019-03-13T18:02:56.199Z,1.03
2019-03-13T18:05:25.793Z,0.93
2019-03-13T18:07:56.096Z,0.90
2019-03-13T18:10:25.808Z,1.20
2019-03-13T18:12:54.995Z,1.10
2019-03-13T18:15:24.523Z,0.87
2019-03-13T18:17:54.013Z,0.83
2019-03-13T18:20:23.233Z,1.00
2019-03-13T18:22:52.494Z,0.87
2019-03-13T18:25:21.704Z,1.03
2019-03-13T18:27:50.911Z,0.90
2019-03-13T18:30:21.749Z,1.20
2019-03-13T18:32:50.979Z,1.00
2019-03-13T18:35:20.307Z,1.27
2019-03-13T18:37:49.592Z,1.20
2019-03-13T18:40:18.791Z,1.20
2019-03-13T18:42:48.301Z,1.03
2019-03-13T18:45:19.713Z,1.43
2019-03-13T18:47:49.222Z,1.80
2019-03-13T18:50:18.825Z,1.40
2019-03-13T18:52:48.009Z,1.97
2019-03-13T18:55:21.658Z,1.37
2019-03-13T18:57:51.028Z,1.30
2019-03-13T19:00:22.520Z,1.70
2019-03-13T19:02:52.188Z,1.27
2019-03-13T19:05:21.397Z,1.30
2019-03-13T19:07:50.911Z,1.20
2019-03-13T19:10:20.339Z,1.50
2019-03-13T19:12:49.543Z,1.30
2019-03-13T19:15:19.931Z,1.30
2019-03-13T19:17:55.811Z,1.60
2019-03-13T19:20:26.356Z,1.40
2019-03-13T19:22:55.787Z,1.57
2019-03-13T19:25:25.259Z,1.60
2019-03-13T19:27:55.238Z,2.10
2019-03-13T19:30:38.258Z,1.40
2019-03-13T19:33:07.885Z,1.60
2019-03-13T19:35:37.395Z,1.57
2019-03-13T19:38:07.205Z,1.90
2019-03-13T19:40:36.466Z,2.07
2019-03-13T19:43:05.890Z,3.93
2019-03-13T19:45:37.580Z,3.03
2019-03-13T19:48:06.879Z,2.53
2019-03-13T19:50:36.403Z,3.33
2019-03-13T19:53:06.050Z,3.90
2019-03-13T19:55:35.350Z,2.47
2019-03-13T19:58:04.720Z,3.57
2019-03-13T20:00:34.101Z,2.50
2019-03-13T20:03:03.399Z,1.97
2019-03-13T20:05:44.636Z,2.63
2019-03-13T20:08:04.067Z,2.33
2019-03-13T20:10:33.337Z,2.50
2019-03-13T20:13:02.759Z,2.70
2019-03-13T20:15:32.142Z,2.50
2019-03-13T20:18:11.052Z,2.13
2019-03-13T20:20:40.583Z,3.07
2019-03-13T20:23:09.890Z,2.57
2019-03-13T20:25:39.176Z,2.90
2019-03-13T20:28:10.186Z,3.40
2019-03-13T20:30:39.566Z,2.83
2019-03-13T20:33:08.902Z,2.30
2019-03-13T20:35:38.204Z,2.70
2019-03-13T20:38:07.476Z,2.60
2019-03-13T20:40:37.404Z,2.57
2019-03-13T20:43:06.726Z,2.60
2019-03-13T20:45:39.109Z,3.23
2019-03-13T20:48:08.356Z,3.27
2019-03-13T20:50:38.294Z,3.43
2019-03-13T20:53:07.981Z,2.40
2019-03-13T20:55:38.250Z,3.00
2019-03-13T20:58:07.510Z,3.00
2019-03-13T21:00:36.751Z,2.70
2019-03-13T21:03:06.526Z,2.43
2019-03-13T21:05:35.781Z,2.60
2019-03-13T21:08:04.983Z,2.80
2019-03-13T21:10:34.240Z,3.00
2019-03-13T21:13:03.493Z,2.77
2019-03-13T21:15:32.801Z,2.60
2019-03-13T21:18:02.119Z,2.77
2019-03-13T21:20:31.336Z,2.90
2019-03-13T21:23:00.629Z,2.90
2019-03-13T21:25:36.397Z,2.83
2019-03-13T21:28:05.691Z,2.93
2019-03-13T21:30:39.270Z,2.60
2019-03-13T21:33:08.590Z,2.43
2019-03-13T21:35:40.075Z,3.00
2019-03-13T21:38:13.244Z,2.30
2019-03-13T21:40:42.579Z,3.43
2019-03-13T21:43:16.363Z,2.80
2019-03-13T21:45:46.345Z,2.73
2019-03-13T21:48:16.008Z,2.40
2019-03-13T21:50:45.565Z,2.63
2019-03-13T21:53:14.804Z,2.70
2019-03-13T21:55:44.082Z,2.80
2019-03-13T21:58:13.371Z,3.60
2019-03-13T22:00:42.622Z,3.33
2019-03-13T22:03:11.891Z,3.43
2019-03-13T22:05:41.147Z,3.27
2019-03-13T22:08:10.386Z,4.23
2019-03-13T22:10:40.490Z,4.60
2019-03-13T22:13:09.775Z,5.67
2019-03-13T22:15:39.421Z,6.40
2019-03-13T22:18:08.723Z,5.00
2019-03-13T22:20:37.986Z,3.83
2019-03-13T22:23:07.197Z,3.90
2019-03-13T22:25:36.690Z,4.10
2019-03-13T22:28:05.937Z,3.80
2019-03-13T22:30:35.481Z,4.43
2019-03-13T22:33:04.725Z,4.30
2019-03-13T22:35:33.895Z,4.50
2019-03-13T22:38:03.122Z,4.10
2019-03-13T22:40:32.638Z,3.93
2019-03-13T22:43:01.867Z,3.97
2019-03-13T22:45:31.162Z,4.90
2019-03-13T22:48:00.464Z,6.07
2019-03-13T22:50:30.078Z,5.93
2019-03-13T22:52:59.331Z,5.83
2019-03-13T22:55:29.291Z,6.50
2019-03-13T22:58:01.352Z,5.13
2019-03-13T23:00:56.367Z,5.00
2019-03-13T23:03:26.797Z,5.03
2019-03-13T23:05:56.401Z,5.23
2019-03-13T23:08:25.562Z,4.80
2019-03-13T23:10:54.772Z,5.67
2019-03-13T23:13:23.962Z,5.93
2019-03-13T23:15:53.178Z,6.30
2019-03-13T23:18:22.367Z,5.37
2019-03-13T23:20:51.546Z,4.13
2019-03-13T23:23:20.779Z,3.93
2019-03-13T23:25:50.042Z,3.60
2019-03-13T23:28:19.235Z,3.33
2019-03-13T23:30:48.514Z,3.90
2019-03-13T23:33:17.689Z,2.70
2019-03-13T23:35:46.893Z,3.20
2019-03-13T23:38:16.103Z,3.37
2019-03-13T23:40:45.299Z,3.30
2019-03-13T23:43:14.602Z,3.07
2019-03-13T23:45:43.890Z,3.50
2019-03-13T23:48:13.057Z,3.00
2019-03-13T23:50:42.299Z,3.80
2019-03-13T23:53:11.496Z,3.03
2019-03-13T23:55:40.722Z,3.20
2019-03-13T23:58:11.493Z,3.20
